Time;durP1;ratioP1;P1;durP2;ratioP2;P2;SDS_P1;SDS_P2;PMS_P1;PMS_P2;Temp;Humidity;BMP_temperature;BMP_pressure;BME280_temperature;BME280_humidity;BME280_pressure;Samples;Min_cycle;Max_cycle;Signal;HPM_P1;HPM_P2
2022/03/29 11:33:59;;;;;;;11.32;4.70;;;15.50;74.50;;;;;;2299793;62;30241;-77
2022/03/29 11:36:32;;;;;;;9.30;4.90;;;15.50;74.20;;;;;;2292318;62;30033;-78
2022/03/29 11:38:59;;;;;;;6.85;4.72;;;15.60;76.50;;;;;;2299312;62;30243;-79
2022/03/29 11:41:27;;;;;;;6.25;4.28;;;15.60;77.60;;;;;;2292026;62;31293;-79
2022/03/29 11:44:00;;;;;;;9.02;4.53;;;15.70;78.60;;;;;;2286038;62;31682;-80
2022/03/29 11:46:45;;;;;;;12.02;5.47;;;15.70;79.20;;;;;;2291959;62;30212;-78
2022/03/29 11:49:12;;;;;;;6.65;4.65;;;15.70;78.50;;;;;;2299763;62;30070;-78
2022/03/29 11:51:37;;;;;;;6.15;4.55;;;15.80;79.70;;;;;;2299456;62;30579;-78
2022/03/29 11:54:03;;;;;;;5.72;4.63;;;15.80;79.60;;;;;;2299082;62;30375;-76
2022/03/29 11:56:33;;;;;;;6.03;4.65;;;15.80;79.40;;;;;;2299490;62;30151;-79
2022/03/29 11:59:05;;;;;;;9.32;4.85;;;15.80;79.30;;;;;;2285700;62;30232;-79
2022/03/29 12:01:32;;;;;;;6.65;4.28;;;15.80;79.20;;;;;;2291771;62;30122;-79
2022/03/29 12:04:03;;;;;;;9.18;4.53;;;15.80;79.10;;;;;;2291799;62;30468;-78
2022/03/29 12:06:30;;;;;;;7.53;4.47;;;15.80;78.90;;;;;;2283319;62;30195;-78
2022/03/29 12:09:07;;;;;;;7.13;3.85;;;15.80;78.70;;;;;;2283601;62;30126;-80
2022/03/29 12:11:34;;;;;;;8.57;5.13;;;15.80;77.70;;;;;;2290867;62;30103;-77
2022/03/29 12:14:02;;;;;;;7.63;4.78;;;15.80;78.50;;;;;;2290883;62;30149;-78
2022/03/29 12:16:29;;;;;;;7.75;4.70;;;15.80;78.20;;;;;;2290434;62;30116;-78
2022/03/29 12:18:56;;;;;;;8.10;4.78;;;15.90;78.20;;;;;;2290449;62;30263;-81
2022/03/29 12:21:23;;;;;;;8.00;4.45;;;15.80;77.90;;;;;;2283521;62;30832;-78
2022/03/29 12:24:00;;;;;;;7.78;4.80;;;15.80;77.80;;;;;;2290393;62;30167;-78
2022/03/29 12:26:28;;;;;;;4.47;3.95;;;15.80;77.60;;;;;;2298024;62;29961;-79
2022/03/29 12:28:59;;;;;;;6.68;4.57;;;15.90;77.70;;;;;;2284778;62;30181;-78
2022/03/29 12:31:27;;;;;;;5.80;4.22;;;15.90;77.40;;;;;;2299394;62;31289;-79
2022/03/29 12:33:54;;;;;;;7.57;4.40;;;15.90;77.20;;;;;;2285190;62;30158;-79
2022/03/29 12:36:20;;;;;;;6.35;4.50;;;15.90;77.80;;;;;;2284736;62;30163;-78
2022/03/29 12:39:09;;;;;;;7.35;4.60;;;16.00;76.90;;;;;;2298771;62;30147;-81
2022/03/29 12:41:46;;;;;;;6.00;4.32;;;16.00;76.30;;;;;;2299151;62;30430;-78
2022/03/29 12:44:26;;;;;;;6.90;4.25;;;16.10;76.80;;;;;;2289630;62;30070;-78
2022/03/29 12:46:52;;;;;;;4.65;4.03;;;16.10;76.50;;;;;;2286265;62;30156;-80
2022/03/29 12:49:31;;;;;;;6.57;4.22;;;16.20;76.30;;;;;;2286565;62;30090;-79
2022/03/29 12:52:00;;;;;;;5.65;4.28;;;16.20;76.30;;;;;;2279453;62;31004;-78
2022/03/29 12:54:39;;;;;;;7.13;4.00;;;16.10;76.00;;;;;;2279587;62;30122;-77
2022/03/29 12:57:07;;;;;;;6.15;4.28;;;16.10;75.70;;;;;;2286130;62;30163;-76
2022/03/29 12:59:37;;;;;;;5.28;4.13;;;16.20;76.00;;;;;;2279227;62;30280;-80
2022/03/29 13:02:17;;;;;;;7.78;4.03;;;16.20;76.00;;;;;;2284687;62;30210;-78
2022/03/29 13:04:59;;;;;;;5.50;3.95;;;16.20;75.70;;;;;;2284990;62;30814;-79
2022/03/29 13:07:48;;;;;;;5.35;4.07;;;16.30;75.60;;;;;;2278868;62;30319;-78
2022/03/29 13:10:15;;;;;;;6.50;4.10;;;16.30;75.50;;;;;;2284655;62;30266;-76
2022/03/29 13:12:59;;;;;;;6.68;4.32;;;16.30;75.60;;;;;;2285263;62;30276;-76
2022/03/29 13:15:48;;;;;;;9.00;4.57;;;16.40;74.80;;;;;;2285275;62;30454;-76
2022/03/29 13:18:17;;;;;;;6.38;4.07;;;16.50;74.40;;;;;;2284368;62;30241;-76
2022/03/29 13:20:43;;;;;;;8.77;4.95;;;16.50;74.70;;;;;;2285152;62;30055;-76
2022/03/29 13:23:09;;;;;;;4.32;3.90;;;16.60;74.80;;;;;;2284613;62;30728;-77
2022/03/29 13:25:36;;;;;;;5.28;3.65;;;16.70;74.70;;;;;;2284260;62;30689;-83
2022/03/29 13:28:02;;;;;;;8.93;4.07;;;16.80;74.60;;;;;;2284661;62;30228;-79
2022/03/29 13:30:29;;;;;;;6.28;3.95;;;17.00;74.40;;;;;;2284442;62;30397;-82
2022/03/29 13:32:55;;;;;;;7.65;4.00;;;17.10;74.00;;;;;;2284138;62;29952;-82
2022/03/29 13:35:24;;;;;;;7.40;4.15;;;17.20;73.70;;;;;;2285091;62;30604;-81
2022/03/29 13:37:50;;;;;;;7.30;4.13;;;17.20;73.40;;;;;;2284405;62;30169;-81
2022/03/29 13:40:18;;;;;;;6.78;3.85;;;17.20;73.20;;;;;;2284526;62;30148;-81
2022/03/29 13:42:44;;;;;;;7.53;4.78;;;17.30;73.10;;;;;;2284247;62;30765;-81
2022/03/29 13:45:10;;;;;;;7.82;4.95;;;17.30;72.90;;;;;;2286982;62;32537;-82
2022/03/29 13:47:39;;;;;;;5.22;3.63;;;17.30;72.00;;;;;;2292101;62;30192;-82
2022/03/29 13:50:05;;;;;;;5.93;4.20;;;17.40;72.20;;;;;;2285170;62;30145;-81
2022/03/29 13:52:51;;;;;;;7.70;4.72;;;17.50;72.10;;;;;;2292539;62;30182;-82
2022/03/29 13:55:17;;;;;;;6.63;4.22;;;17.60;71.20;;;;;;2292667;62;30210;-82
2022/03/29 13:57:44;;;;;;;4.47;3.85;;;17.70;71.70;;;;;;2293135;62;30066;-81
2022/03/29 14:00:12;;;;;;;6.07;3.95;;;17.90;71.50;;;;;;2291973;62;30042;-82
2022/03/29 14:02:38;;;;;;;5.00;4.13;;;17.90;71.30;;;;;;2285217;62;32361;-82
2022/03/29 14:05:04;;;;;;;6.55;3.75;;;17.90;70.80;;;;;;2292949;62;30092;-82
2022/03/29 14:07:31;;;;;;;5.88;4.20;;;18.00;70.80;;;;;;2293115;62;29989;-81
2022/03/29 14:09:57;;;;;;;5.55;3.90;;;18.00;70.60;;;;;;2293164;62;29929;-76
2022/03/29 14:12:23;;;;;;;8.63;3.80;;;18.00;71.40;;;;;;2285479;62;30748;-74
2022/03/29 14:14:48;;;;;;;6.22;4.13;;;18.00;70.20;;;;;;2284156;62;30260;-76
2022/03/29 14:17:15;;;;;;;5.25;3.97;;;18.10;70.30;;;;;;2284298;62;30088;-73
2022/03/29 14:19:41;;;;;;;5.00;3.75;;;18.20;70.50;;;;;;2283566;62;30215;-74
2022/03/29 14:22:08;;;;;;;8.10;4.20;;;18.40;70.30;;;;;;2283969;62;30169;-75
2022/03/29 14:24:34;;;;;;;7.43;4.22;;;18.60;70.00;;;;;;2269790;62;30425;-76
2022/03/29 14:27:00;;;;;;;7.00;4.18;;;18.90;69.80;;;;;;2284443;62;30134;-76
2022/03/29 14:29:31;;;;;;;6.70;4.07;;;19.20;69.10;;;;;;2277352;62;30145;-77
2022/03/29 14:31:59;;;;;;;4.90;3.95;;;19.40;68.60;;;;;;2284692;62;30594;-78
2022/03/29 14:34:25;;;;;;;8.07;4.10;;;19.80;68.00;;;;;;2277333;62;30175;-77
2022/03/29 14:36:51;;;;;;;6.70;3.78;;;20.10;66.90;;;;;;2284837;62;30177;-78
2022/03/29 14:39:17;;;;;;;5.80;3.70;;;20.00;66.10;;;;;;2284802;62;30217;-76
2022/03/29 14:41:45;;;;;;;5.63;3.80;;;19.70;66.00;;;;;;2284371;62;30900;-76
2022/03/29 14:44:12;;;;;;;6.15;3.90;;;19.40;66.20;;;;;;2284710;62;30187;-77
2022/03/29 14:46:38;;;;;;;5.75;3.90;;;19.20;66.70;;;;;;2270466;62;30141;-77
2022/03/29 14:49:05;;;;;;;5.78;4.05;;;19.00;66.90;;;;;;2277100;62;30114;-75
2022/03/29 14:51:33;;;;;;;7.75;3.83;;;18.80;67.10;;;;;;2284480;62;30253;-77
2022/03/29 14:53:58;;;;;;;6.13;3.65;;;18.70;67.20;;;;;;2270501;62;30568;-76
2022/03/29 14:56:26;;;;;;;5.90;3.63;;;18.60;67.50;;;;;;2270099;62;30100;-76
2022/03/29 14:58:51;;;;;;;5.70;4.00;;;18.60;67.50;;;;;;2277160;62;30418;-76
2022/03/29 15:01:17;;;;;;;5.25;3.90;;;18.60;67.50;;;;;;2284496;62;30949;-75
2022/03/29 15:03:43;;;;;;;4.97;3.63;;;18.60;67.50;;;;;;2277085;62;30179;-76
2022/03/29 15:06:09;;;;;;;5.18;3.95;;;18.60;67.30;;;;;;2284642;62;30375;-76
2022/03/29 15:08:35;;;;;;;5.88;3.90;;;18.80;67.30;;;;;;2284439;62;30008;-79
2022/03/29 15:11:03;;;;;;;11.18;4.03;;;19.50;66.60;;;;;;2284430;62;30141;-77
2022/03/29 15:13:32;;;;;;;4.88;3.78;;;20.20;65.20;;;;;;2284714;62;30016;-78
2022/03/29 15:15:57;;;;;;;3.92;3.38;;;20.80;63.70;;;;;;2277169;62;29955;-78
2022/03/29 15:18:24;;;;;;;5.97;3.75;;;21.00;62.70;;;;;;2284273;62;30239;-78
2022/03/29 15:20:50;;;;;;;5.25;3.50;;;21.20;62.20;;;;;;2284417;62;30056;-77
2022/03/29 15:23:16;;;;;;;7.50;3.35;;;21.30;61.60;;;;;;2277033;62;30237;-78
2022/03/29 15:25:42;;;;;;;5.65;3.65;;;21.60;61.30;;;;;;2284380;62;30306;-78
2022/03/29 15:28:09;;;;;;;7.45;3.60;;;22.00;60.70;;;;;;2284619;62;29987;-73
2022/03/29 15:30:34;;;;;;;5.88;3.53;;;22.30;60.00;;;;;;2290001;62;32667;-74
2022/03/29 15:33:00;;;;;;;5.40;3.63;;;22.60;59.30;;;;;;2285634;62;30723;-73
2022/03/29 15:35:26;;;;;;;7.35;3.38;;;22.80;58.60;;;;;;2284177;62;30142;-74
2022/03/29 15:37:55;;;;;;;5.68;3.65;;;22.80;58.20;;;;;;2283608;62;29972;-73
2022/03/29 15:40:21;;;;;;;6.03;3.40;;;22.60;58.10;;;;;;2284435;62;31251;-75
2022/03/29 15:42:49;;;;;;;6.10;3.60;;;22.30;58.10;;;;;;2284429;62;30831;-73
2022/03/29 15:45:14;;;;;;;5.85;3.50;;;22.30;58.40;;;;;;2284240;62;30403;-74
2022/03/29 15:47:41;;;;;;;5.20;3.53;;;22.40;58.10;;;;;;2284423;62;30077;-75
2022/03/29 15:50:07;;;;;;;5.20;3.47;;;22.60;57.70;;;;;;2284322;62;30185;-75
2022/03/29 15:52:33;;;;;;;5.90;3.30;;;22.80;57.10;;;;;;2283954;62;29985;-74
2022/03/29 15:54:59;;;;;;;5.50;3.53;;;22.80;56.60;;;;;;2283785;62;30289;-73
2022/03/29 15:57:26;;;;;;;7.68;3.45;;;22.90;56.20;;;;;;2284312;62;30102;-79
2022/03/29 15:59:52;;;;;;;4.97;3.28;;;23.00;55.90;;;;;;2283580;62;30097;-75
2022/03/29 16:02:18;;;;;;;5.63;3.30;;;23.00;55.50;;;;;;2284254;62;30156;-74
2022/03/29 16:04:44;;;;;;;4.78;3.28;;;22.90;55.50;;;;;;2283714;62;30212;-75
2022/03/29 16:07:10;;;;;;;3.30;3.00;;;22.60;55.80;;;;;;2283998;62;30428;-76
2022/03/29 16:09:38;;;;;;;5.13;3.58;;;22.30;56.30;;;;;;2283797;62;30803;-73
2022/03/29 16:12:04;;;;;;;5.05;3.50;;;22.00;56.80;;;;;;2283324;62;30277;-75
2022/03/29 16:14:30;;;;;;;4.20;3.30;;;21.70;57.30;;;;;;2283129;62;30224;-75
2022/03/29 16:16:57;;;;;;;6.07;3.67;;;21.30;57.90;;;;;;2276782;62;30175;-72
2022/03/29 16:19:24;;;;;;;6.13;3.80;;;21.00;58.70;;;;;;2270442;62;30222;-75
2022/03/29 16:21:52;;;;;;;4.75;3.80;;;20.90;59.30;;;;;;2285292;62;30019;-74
2022/03/29 16:24:18;;;;;;;8.20;3.65;;;20.70;59.90;;;;;;2278071;62;30172;-75
2022/03/29 16:26:44;;;;;;;6.25;3.45;;;20.60;60.00;;;;;;2285261;62;30018;-74
2022/03/29 16:29:10;;;;;;;5.32;4.00;;;20.50;60.10;;;;;;2271329;62;30143;-75
2022/03/29 16:31:45;;;;;;;5.97;3.78;;;20.40;60.30;;;;;;2285402;62;30699;-78
2022/03/29 16:34:14;;;;;;;4.22;3.33;;;20.30;60.50;;;;;;2287352;62;29953;-80
2022/03/29 16:36:40;;;;;;;4.75;3.42;;;20.20;60.80;;;;;;2279576;62;30028;-79
2022/03/29 16:39:07;;;;;;;6.25;3.40;;;20.10;60.90;;;;;;2286198;62;30072;-73
2022/03/29 16:41:33;;;;;;;5.70;3.83;;;20.00;61.20;;;;;;2293415;62;30610;-74
2022/03/29 16:44:02;;;;;;;6.00;3.80;;;19.80;61.50;;;;;;2286225;62;30195;-75
2022/03/29 16:46:31;;;;;;;7.15;4.13;;;19.70;62.00;;;;;;2286110;62;30071;-75
2022/03/29 16:49:00;;;;;;;5.75;3.60;;;19.60;62.20;;;;;;2279304;62;30749;-74
2022/03/29 16:51:26;;;;;;;6.07;4.10;;;19.50;62.40;;;;;;2293656;62;30622;-75
2022/03/29 16:53:53;;;;;;;5.78;4.07;;;19.40;62.50;;;;;;2288486;62;30126;-75
2022/03/29 16:56:19;;;;;;;4.45;3.95;;;19.30;62.70;;;;;;2277534;62;30184;-75
2022/03/29 16:58:50;;;;;;;10.43;4.38;;;19.30;62.90;;;;;;2285232;62;30838;-74
2022/03/29 17:01:20;;;;;;;6.60;4.38;;;19.20;63.10;;;;;;2286490;62;31912;-77
2022/03/29 17:03:46;;;;;;;9.93;4.22;;;19.10;63.30;;;;;;2291782;62;30114;-75
2022/03/29 17:06:12;;;;;;;10.07;5.00;;;19.00;63.30;;;;;;2284985;62;30232;-74
2022/03/29 17:08:40;;;;;;;8.02;5.18;;;18.90;63.30;;;;;;2293525;62;30903;-74
2022/03/29 17:11:06;;;;;;;6.53;4.75;;;18.80;62.70;;;;;;2293046;62;30050;-74
2022/03/29 17:13:37;;;;;;;8.40;4.55;;;18.70;63.40;;;;;;2286548;62;29989;-74
2022/03/29 17:16:05;;;;;;;9.15;4.75;;;18.70;63.90;;;;;;2284541;62;30289;-75
2022/03/29 17:18:34;;;;;;;7.25;4.60;;;18.60;64.10;;;;;;2284515;62;30125;-74
2022/03/29 17:21:03;;;;;;;11.88;5.18;;;18.50;64.60;;;;;;2285199;62;30573;-75
2022/03/29 17:23:29;;;;;;;7.10;4.90;;;18.50;65.00;;;;;;2284395;62;30061;-75
2022/03/29 17:26:04;;;;;;;9.93;5.05;;;18.50;65.00;;;;;;2285186;62;30462;-75
2022/03/29 17:28:32;;;;;;;10.07;5.10;;;18.40;65.10;;;;;;2284463;62;30989;-76
2022/03/29 17:30:57;;;;;;;11.50;4.75;;;18.30;65.40;;;;;;2289127;62;30087;-75
2022/03/29 17:33:24;;;;;;;11.95;5.20;;;18.30;65.50;;;;;;2292953;62;30526;-74
2022/03/29 17:35:52;;;;;;;9.80;4.95;;;18.30;65.80;;;;;;2286189;62;30451;-74
2022/03/29 17:38:23;;;;;;;7.90;4.57;;;18.20;65.90;;;;;;2293123;62;30310;-74
2022/03/29 17:40:49;;;;;;;17.27;5.38;;;18.10;66.10;;;;;;2293332;62;30581;-74
2022/03/29 17:43:15;;;;;;;14.05;5.05;;;18.10;66.40;;;;;;2285937;62;30033;-74
2022/03/29 17:45:44;;;;;;;8.00;4.47;;;18.00;66.70;;;;;;2293169;62;30148;-75
2022/03/29 17:48:12;;;;;;;8.35;4.93;;;18.00;66.70;;;;;;2285151;62;31119;-74
2022/03/29 17:50:38;;;;;;;9.55;5.07;;;17.90;66.80;;;;;;2280095;62;30101;-72
2022/03/29 17:53:04;;;;;;;8.60;4.53;;;17.90;66.90;;;;;;2277227;62;30702;-74
2022/03/29 17:55:30;;;;;;;5.93;4.25;;;17.80;67.00;;;;;;2277543;62;30222;-74
2022/03/29 17:57:59;;;;;;;5.78;4.10;;;17.80;67.20;;;;;;2284702;62;31111;-73
2022/03/29 18:00:25;;;;;;;7.13;4.20;;;17.70;67.30;;;;;;2277459;62;31158;-74
2022/03/29 18:02:52;;;;;;;8.25;4.57;;;17.70;67.40;;;;;;2284868;62;30029;-73
2022/03/29 18:05:18;;;;;;;6.40;4.25;;;17.60;67.50;;;;;;2284356;62;30170;-74
2022/03/29 18:07:44;;;;;;;8.82;4.20;;;17.60;67.60;;;;;;2277479;62;30663;-74
2022/03/29 18:10:13;;;;;;;7.50;4.82;;;17.50;67.80;;;;;;2284816;62;30242;-75
2022/03/29 18:12:41;;;;;;;7.25;4.68;;;17.50;68.10;;;;;;2288183;62;30567;-75
2022/03/29 18:15:09;;;;;;;5.65;4.05;;;17.40;68.30;;;;;;2293105;62;30298;-78
2022/03/29 18:17:38;;;;;;;8.65;4.57;;;17.40;68.40;;;;;;2285750;62;30150;-75
2022/03/29 18:20:05;;;;;;;7.43;4.20;;;17.40;68.50;;;;;;2285317;62;30600;-75
2022/03/29 18:22:36;;;;;;;7.55;4.18;;;17.30;68.60;;;;;;2293009;62;30127;-75
2022/03/29 18:25:03;;;;;;;7.90;3.83;;;17.30;68.80;;;;;;2293166;62;30631;-75
2022/03/29 18:27:33;;;;;;;11.15;4.45;;;17.20;68.80;;;;;;2285482;62;32147;-75
2022/03/29 18:29:59;;;;;;;10.60;4.38;;;17.20;68.90;;;;;;2292882;62;30209;-75
2022/03/29 18:32:28;;;;;;;7.85;4.22;;;17.20;69.30;;;;;;2292969;62;30297;-75
2022/03/29 18:34:54;;;;;;;10.95;3.90;;;17.20;69.30;;;;;;2292859;62;29958;-75
2022/03/29 18:37:19;;;;;;;5.70;3.60;;;17.10;69.60;;;;;;2293068;62;32006;-75
2022/03/29 18:39:45;;;;;;;6.57;3.83;;;17.10;69.60;;;;;;2292879;62;30709;-75
2022/03/29 18:42:11;;;;;;;5.63;3.95;;;17.10;69.70;;;;;;2292605;62;30095;-75
2022/03/29 18:44:39;;;;;;;3.90;3.38;;;17.10;69.80;;;;;;2293078;62;30190;-75
2022/03/29 18:47:07;;;;;;;4.80;3.35;;;17.10;69.90;;;;;;2292791;62;30131;-76
2022/03/29 18:49:33;;;;;;;4.85;3.70;;;17.20;69.80;;;;;;2285254;62;30491;-75
2022/03/29 18:51:59;;;;;;;4.38;3.17;;;17.20;70.10;;;;;;2293007;62;30199;-75
2022/03/29 18:54:25;;;;;;;5.93;3.53;;;17.20;70.10;;;;;;2292623;62;30236;-76
2022/03/29 18:56:51;;;;;;;5.63;3.67;;;17.20;70.00;;;;;;2292974;62;30041;-76
2022/03/29 18:59:20;;;;;;;6.25;3.20;;;17.20;69.90;;;;;;2292719;62;31543;-76
2022/03/29 19:01:49;;;;;;;4.47;3.00;;;17.20;70.00;;;;;;2292664;62;30388;-77
2022/03/29 19:04:16;;;;;;;5.65;3.13;;;17.20;70.20;;;;;;2285442;62;30191;-74
2022/03/29 19:06:45;;;;;;;4.95;3.05;;;17.20;70.70;;;;;;2285097;62;31207;-75
2022/03/29 19:09:14;;;;;;;3.83;3.20;;;17.20;70.30;;;;;;2292594;62;30096;-75
2022/03/29 19:11:40;;;;;;;5.00;2.63;;;17.20;71.00;;;;;;2285224;62;30139;-75
2022/03/29 19:14:07;;;;;;;4.55;2.65;;;17.30;70.80;;;;;;2284111;62;30022;-75
2022/03/29 19:16:33;;;;;;;4.05;3.05;;;17.30;71.30;;;;;;2284805;62;32060;-75
2022/03/29 19:18:59;;;;;;;2.80;2.50;;;17.30;70.70;;;;;;2285457;62;30504;-75
2022/03/29 19:21:25;;;;;;;3.75;2.60;;;17.40;70.50;;;;;;2292104;62;30068;-75
2022/03/29 19:23:55;;;;;;;5.28;2.75;;;17.40;70.40;;;;;;2278388;62;30278;-75
2022/03/29 19:26:21;;;;;;;6.35;3.03;;;17.40;70.40;;;;;;2292807;62;31084;-75
2022/03/29 19:28:47;;;;;;;3.78;2.75;;;17.50;70.40;;;;;;2292821;62;30130;-74
2022/03/29 19:31:12;;;;;;;3.03;2.65;;;17.50;70.40;;;;;;2292354;62;30133;-75
2022/03/29 19:33:38;;;;;;;2.95;2.60;;;17.50;70.40;;;;;;2276715;62;30197;-75
2022/03/29 19:36:04;;;;;;;4.20;2.70;;;17.50;70.30;;;;;;2276159;62;30447;-74
2022/03/29 19:39:25;;;;;;;2.97;2.63;;;17.50;70.20;;;;;;2268707;62;30759;-74
2022/03/29 19:41:53;;;;;;;4.00;2.92;;;17.50;70.20;;;;;;2263508;62;30118;-74
2022/03/29 19:44:19;;;;;;;4.00;2.83;;;17.60;70.10;;;;;;2276095;62;30144;-75
2022/03/29 19:46:48;;;;;;;5.03;2.80;;;17.60;70.00;;;;;;2275757;62;30076;-75
2022/03/29 19:49:16;;;;;;;3.88;2.83;;;17.60;70.00;;;;;;2275635;62;32373;-74
2022/03/29 19:51:43;;;;;;;3.22;2.50;;;17.60;70.20;;;;;;2275869;62;30241;-75
2022/03/29 19:54:12;;;;;;;4.63;3.20;;;17.60;70.00;;;;;;2276576;62;30095;-74
2022/03/29 19:56:38;;;;;;;4.25;2.97;;;17.60;70.00;;;;;;2277459;62;30028;-74
2022/03/29 19:59:04;;;;;;;3.42;2.58;;;17.70;70.00;;;;;;2277117;62;30313;-77
2022/03/29 20:01:30;;;;;;;2.80;2.60;;;17.70;69.90;;;;;;2277327;62;29968;-77
2022/03/29 20:03:56;;;;;;;3.40;2.60;;;17.70;70.10;;;;;;2277473;62;30162;-76
2022/03/29 20:06:22;;;;;;;2.83;2.63;;;17.70;69.90;;;;;;2274588;62;30296;-76
2022/03/29 20:08:51;;;;;;;4.22;2.92;;;17.70;69.80;;;;;;2276237;62;30174;-76
2022/03/29 20:11:25;;;;;;;5.70;3.13;;;17.70;69.70;;;;;;2276426;62;30153;-76
2022/03/29 20:13:51;;;;;;;2.53;2.33;;;17.80;69.90;;;;;;2276099;62;30317;-76
2022/03/29 20:16:19;;;;;;;4.10;2.55;;;17.80;69.70;;;;;;2261058;62;30195;-77
2022/03/29 20:18:45;;;;;;;4.63;2.60;;;17.80;69.90;;;;;;2267647;62;31841;-75
2022/03/29 20:21:11;;;;;;;3.35;2.47;;;17.80;69.80;;;;;;2260616;62;30540;-75
2022/03/29 20:23:37;;;;;;;3.47;2.78;;;17.80;69.70;;;;;;2267616;62;30030;-75
2022/03/29 20:26:03;;;;;;;2.60;2.40;;;17.80;69.70;;;;;;2267873;62;30927;-76
2022/03/29 20:28:29;;;;;;;2.47;2.28;;;17.80;69.60;;;;;;2267839;62;29977;-75
2022/03/29 20:30:55;;;;;;;3.33;2.40;;;17.80;69.60;;;;;;2270761;62;32173;-75
2022/03/29 20:33:21;;;;;;;2.97;2.60;;;17.90;69.70;;;;;;2268326;62;30321;-74
2022/03/29 20:35:47;;;;;;;3.35;2.50;;;17.90;69.70;;;;;;2276076;62;30113;-75
2022/03/29 20:38:13;;;;;;;3.17;2.65;;;17.90;69.60;;;;;;2276176;62;30238;-74
2022/03/29 20:40:41;;;;;;;2.92;2.60;;;17.90;69.50;;;;;;2275896;62;30168;-74
2022/03/29 20:43:07;;;;;;;3.55;2.80;;;17.90;69.60;;;;;;2276198;62;30221;-75
2022/03/29 20:45:34;;;;;;;3.35;2.95;;;17.90;69.50;;;;;;2275522;62;30143;-74
2022/03/29 20:48:00;;;;;;;3.55;2.83;;;17.80;69.70;;;;;;2268583;62;30234;-75
2022/03/29 20:50:27;;;;;;;2.50;2.28;;;17.80;69.50;;;;;;2275442;62;30211;-75
2022/03/29 20:52:56;;;;;;;3.20;2.90;;;17.80;69.60;;;;;;2275970;62;30058;-75
2022/03/29 20:55:22;;;;;;;3.97;2.67;;;17.80;69.50;;;;;;2275867;62;30249;-73
2022/03/29 20:57:49;;;;;;;3.08;2.63;;;17.80;69.40;;;;;;2276210;62;30097;-76
2022/03/29 21:00:16;;;;;;;3.10;2.72;;;17.80;69.50;;;;;;2276118;62;30077;-76
2022/03/29 21:02:45;;;;;;;4.70;2.40;;;17.80;69.40;;;;;;2274992;62;30003;-76
2022/03/29 21:05:11;;;;;;;3.00;2.67;;;17.80;69.40;;;;;;2275970;62;30812;-76
2022/03/29 21:07:37;;;;;;;3.80;2.70;;;17.80;69.30;;;;;;2275226;62;30533;-76
2022/03/29 21:10:06;;;;;;;3.58;2.63;;;17.80;69.30;;;;;;2274909;62;30134;-76
2022/03/29 21:12:32;;;;;;;3.53;2.67;;;17.80;69.20;;;;;;2268750;62;30220;-76
2022/03/29 21:14:57;;;;;;;3.42;3.03;;;17.80;69.20;;;;;;2275397;62;30794;-75
2022/03/29 21:17:23;;;;;;;3.88;3.10;;;17.80;69.60;;;;;;2275492;62;30260;-75
2022/03/29 21:19:49;;;;;;;3.65;2.67;;;17.80;69.50;;;;;;2275932;62;30058;-76
2022/03/29 21:22:15;;;;;;;4.75;2.65;;;17.80;69.60;;;;;;2275571;62;30099;-76
2022/03/29 21:24:41;;;;;;;3.75;2.67;;;17.70;69.40;;;;;;2275980;62;31074;-76
2022/03/29 21:27:07;;;;;;;3.88;2.72;;;17.70;69.40;;;;;;2274971;62;31632;-77
2022/03/29 21:29:33;;;;;;;4.75;2.85;;;17.70;69.40;;;;;;2274906;62;30364;-76
2022/03/29 21:31:59;;;;;;;6.55;3.20;;;17.70;69.40;;;;;;2278403;62;30082;-75
2022/03/29 21:34:25;;;;;;;3.72;2.70;;;17.70;69.40;;;;;;2292224;62;30015;-75
2022/03/29 21:36:51;;;;;;;4.18;2.78;;;17.80;69.40;;;;;;2291271;62;30246;-75
2022/03/29 21:39:17;;;;;;;3.55;2.70;;;17.80;69.30;;;;;;2292357;62;30133;-74
2022/03/29 21:41:43;;;;;;;3.10;2.80;;;17.80;69.20;;;;;;2292188;62;30482;-75
2022/03/29 21:44:09;;;;;;;4.05;3.13;;;17.80;69.10;;;;;;2292197;62;30056;-75
2022/03/29 21:46:35;;;;;;;3.30;3.00;;;17.70;69.30;;;;;;2291422;62;30611;-76
2022/03/29 21:49:01;;;;;;;3.70;2.70;;;17.70;69.30;;;;;;2292248;62;30354;-75
2022/03/29 21:51:33;;;;;;;4.22;2.90;;;17.70;69.50;;;;;;2290494;62;30467;-74
2022/03/29 21:54:02;;;;;;;3.67;2.95;;;17.70;69.40;;;;;;2283929;62;30743;-75
2022/03/29 21:56:29;;;;;;;2.97;2.60;;;17.70;69.30;;;;;;2283888;62;30501;-76
2022/03/29 21:59:00;;;;;;;;;;;17.70;69.20;;;;;;2284003;62;30168;-77
2022/03/29 22:01:26;;;;;;;5.43;2.97;;;17.70;69.30;;;;;;2284089;62;30086;-76
2022/03/29 22:03:52;;;;;;;3.50;3.10;;;17.70;69.30;;;;;;2283808;62;30199;-76
2022/03/29 22:06:18;;;;;;;4.40;3.53;;;17.70;69.30;;;;;;2284312;62;30549;-76
